Date,TemperatureHighF,TemperatureAvgF,TemperatureLowF,DewpointHighF,DewpointAvgF,DewpointLowF,HumidityHigh,HumidityAvg,HumidityLow,PressureMaxIn,PressureMinIn,WindSpeedMaxMPH,WindSpeedAvgMPH,GustSpeedMaxMPH,PrecipitationSumIn
2012-5-12,71,65,60,43,32,0,46,31,8,29.96,29.91,3,1,6,0.00
2012-5-13,78,67,60,49,18,-13,41,17,4,29.96,29.86,2,1,4,0.00
2012-5-14,72,64,54,41,16,-26,52,21,2,29.89,29.77,3,2,5,0.00
2012-5-15,68,60,54,41,17,-31,44,23,2,29.83,29.76,3,1,6,0.00
2012-5-16,81,68,57,38,29,18,32,24,14,29.87,29.74,3,1,7,0.00
2012-5-17,71,64,53,47,36,19,61,37,18,29.74,29.62,4,1,9,0.00
2012-5-18,61,54,48,48,34,21,68,48,31,29.82,29.58,5,1,11,0.00
2012-5-19,74,61,51,45,29,17,42,29,22,29.88,29.81,2,0,5,0.00
2012-5-20,79,67,59,38,32,22,37,28,20,29.87,29.81,1,0,5,0.00
2012-5-21,77,67,60,43,31,20,45,27,20,29.87,29.79,3,0,5,0.00
2012-5-22,75,67,60,49,30,-5,51,27,6,29.83,29.67,6,1,8,0.00
2012-5-23,71,62,56,51,32,12,65,35,15,29.66,29.50,8,3,22,0.00
2012-5-24,66,56,49,51,34,18,70,45,23,29.57,29.49,6,2,11,0.00
2012-5-25,46,40,32,42,39,31,96,94,84,29.72,29.50,8,3,12,0.04
2012-5-26,38,34,30,37,32,29,96,96,96,30.09,29.72,4,1,7,0.01
2012-5-27,61,56,50,43,37,26,57,49,39,30.11,30.00,3,0,6,0.00
2012-5-28,68,56,47,40,33,23,66,42,29,29.99,29.87,4,1,6,0.00
2012-5-29,69,59,52,40,32,21,51,36,25,29.91,29.86,3,1,5,0.00
2012-5-30,70,61,53,48,36,24,56,39,26,29.92,29.86,3,1,5,0.00
2012-5-31,84,69,56,49,33,18,45,28,13,29.90,29.76,3,1,8,0.00
2012-6-1,80,71,62,47,32,20,43,25,14,29.77,29.63,4,1,6,0.00
2012-6-2,72,64,58,51,37,-6,59,39,6,29.72,29.65,3,1,5,0.00
2012-6-3,71,64,59,51,41,31,58,44,31,29.77,29.68,3,1,4,0.00
2012-6-4,67,59,49,50,42,29,90,54,32,29.79,29.71,4,1,8,0.00
2012-6-5,56,49,45,46,39,18,84,69,33,29.85,29.74,4,1,8,0.00
2012-6-6,69,53,40,43,29,18,72,42,20,29.87,29.81,6,2,7,0.00
2012-6-7,75,64,53,40,28,14,38,26,18,29.84,29.76,3,1,5,0.00
2012-6-8,70,63,56,47,33,20,67,34,21,29.76,29.66,3,1,6,0.00
2012-6-9,65,59,54,48,40,30,62,51,33,29.69,29.63,3,1,5,0.00
2012-6-10,74,62,50,49,27,7,46,29,11,29.84,29.70,5,1,6,0.00
2012-6-11,78,68,60,45,26,9,35,21,12,29.86,29.80,3,0,4,0.00
2012-6-12,78,68,62,48,31,18,48,25,17,29.85,29.74,2,0,5,0.00
2012-6-13,73,65,59,46,31,9,61,30,12,29.76,29.63,4,1,4,0.00
2012-6-14,71,64,59,46,31,14,47,30,16,29.69,29.61,2,0,4,0.00
2012-6-15,77,66,59,53,36,18,56,33,19,29.69,29.61,3,1,5,0.00
2012-6-16,79,69,58,50,34,8,43,28,10,29.79,29.67,3,1,12,0.00
2012-6-17,81,71,63,46,28,3,38,22,8,29.83,29.74,3,1,5,0.00
2012-6-23,56,55,55,44,44,44,66,65,65,29.75,29.74,1,1,3,0.00
2012-6-24,71,61,55,45,40,29,67,46,32,29.85,29.75,4,2,5,0.00
2012-6-25,69,60,53,45,33,20,71,38,21,29.89,29.82,3,2,5,0.00
2012-6-26,73,63,55,41,17,-42,43,20,1,29.83,29.70,3,1,5,0.00
2012-6-27,77,66,59,45,27,14,39,23,14,29.83,29.71,2,1,5,0.00
2012-6-28,77,68,62,44,23,2,44,20,8,29.91,29.81,4,1,5,0.00
2012-6-29,77,68,61,37,22,1,36,20,8,29.91,29.81,3,1,4,0.00
2012-6-30,76,66,59,44,29,12,55,27,14,29.82,29.73,3,1,4,0.00
2012-7-1,72,64,57,49,36,11,70,38,13,29.75,29.69,2,1,4,0.00
2012-7-2,76,66,58,52,44,34,63,46,31,29.76,29.68,2,0,4,0.00
2012-7-3,76,67,62,55,48,37,66,50,33,29.75,29.67,3,1,5,0.00
2012-7-4,72,65,60,56,52,49,73,65,54,29.76,29.68,3,1,5,0.00
2012-7-5,74,65,58,54,49,40,78,58,40,29.85,29.76,3,1,5,0.00
2012-7-6,77,67,61,51,45,37,58,46,36,29.86,29.83,4,1,6,0.00
2012-7-7,79,68,62,41,30,4,41,25,9,29.91,29.85,4,1,6,0.00
2012-7-8,81,70,63,41,24,-7,33,19,5,29.91,29.84,3,1,4,0.00
2012-7-9,87,77,70,40,31,9,27,19,8,29.86,29.76,3,1,5,0.00
2012-7-10,89,78,70,46,40,33,37,26,18,29.77,29.67,4,1,5,0.00
2012-7-11,88,78,72,48,38,29,34,24,18,29.73,29.65,3,1,5,0.00
2012-7-12,76,72,66,54,44,32,62,39,20,29.72,29.63,4,0,8,0.00
2012-7-13,70,64,57,61,56,48,92,76,49,29.85,29.70,5,1,6,0.51
2012-7-14,75,66,61,55,52,49,79,61,45,29.87,29.78,4,1,7,0.00
2012-7-15,73,65,59,56,44,8,70,50,12,29.81,29.74,4,2,7,0.00
2012-7-16,68,60,51,45,27,-1,75,32,8,29.82,29.75,4,2,9,0.00
2012-7-17,66,58,53,48,34,9,71,42,16,29.91,29.80,4,2,7,0.00
2012-7-18,74,64,56,40,32,18,45,31,21,29.95,29.87,3,1,6,0.00
2012-7-19,79,70,64,47,42,36,48,37,26,29.90,29.82,3,1,7,0.00
2012-7-20,80,70,63,51,48,44,54,45,34,29.89,29.82,4,1,6,0.00
2012-7-21,83,74,68,52,48,44,47,40,31,29.85,29.74,3,1,5,0.00
2012-7-22,81,72,68,56,51,46,57,47,42,29.80,29.74,3,1,6,0.00
2012-7-23,79,70,64,54,51,47,61,51,37,29.81,29.75,3,1,6,0.00
2012-7-24,77,68,62,52,40,24,57,38,19,29.85,29.78,3,2,6,0.00
2012-7-25,76,68,62,44,24,-8,46,21,5,29.88,29.80,3,2,5,0.00
2012-7-26,76,67,62,39,23,-5,38,20,6,29.87,29.80,3,2,7,0.00
2012-7-27,75,68,62,40,25,-2,33,21,6,29.88,29.80,3,2,5,0.00
2012-8-7,73,73,72,48,48,47,41,41,40,29.79,29.79,0,0,1,0.00
2012-8-8,88,78,72,53,50,47,43,38,30,29.80,29.73,3,0,5,0.00
2012-8-9,87,78,74,54,49,45,48,36,28,29.78,29.69,2,0,7,0.01
2012-8-10,87,78,72,56,51,46,52,40,29,29.72,29.60,2,1,5,0.00
2012-8-11,84,75,71,56,48,42,56,39,31,29.72,29.63,3,0,5,0.00
2012-8-12,87,76,70,54,50,43,50,40,31,29.75,29.68,3,0,6,0.00
2012-8-13,85,76,71,54,49,46,51,40,32,29.73,29.67,3,0,6,0.00
2012-8-14,84,75,68,55,50,46,53,42,28,29.73,29.62,2,1,7,0.00
2012-8-15,80,72,67,54,44,34,58,37,27,29.76,29.66,3,0,4,0.00
2012-8-16,82,73,68,58,42,35,54,34,24,29.82,29.72,2,0,6,0.00
2012-8-17,77,70,64,60,54,40,75,59,35,29.81,29.75,2,0,5,0.00
2012-8-18,78,68,62,61,57,53,85,68,52,29.82,29.74,3,0,4,0.00
2012-8-19,80,71,64,59,54,49,68,56,45,29.80,29.69,2,0,6,0.00
2012-8-20,80,72,67,56,53,49,63,52,38,29.77,29.71,3,1,5,0.00
2012-8-21,76,70,63,57,54,52,76,60,44,29.77,29.69,3,1,5,0.00
2012-8-22,74,66,60,59,53,42,80,65,49,29.80,29.71,3,0,4,0.00
2012-8-23,75,66,60,57,53,47,75,63,48,29.82,29.75,3,1,8,0.00
2012-8-24,76,67,61,55,49,42,69,54,37,29.81,29.72,4,1,5,0.00
2012-8-25,75,67,59,56,51,45,72,57,49,29.73,29.67,3,1,6,0.00
2012-8-26,73,64,54,50,34,16,80,38,17,29.87,29.69,3,1,4,0.00
2012-8-27,80,70,65,42,25,-17,37,21,3,29.92,29.82,3,1,6,0.00
2012-8-28,86,74,69,47,41,37,38,30,21,29.86,29.75,3,0,5,0.00
2012-8-29,83,74,67,55,48,40,58,41,33,29.77,29.66,4,1,8,0.00
2012-8-30,75,67,63,61,55,48,81,65,47,29.73,29.64,4,1,6,0.00
2012-8-31,75,66,60,56,46,18,78,53,17,29.84,29.72,6,1,7,0.00
2012-9-1,72,65,60,31,20,10,31,18,13,29.89,29.83,5,2,8,0.00
2012-9-2,79,69,62,24,-5,-38,19,7,1,29.89,29.81,3,1,5,0.00
2012-9-3,80,72,66,39,23,-16,35,18,3,29.89,29.82,2,1,5,0.00
2012-9-4,81,71,66,48,40,32,53,34,20,29.90,29.82,2,1,4,0.00
2012-9-5,73,67,63,56,50,40,77,57,34,29.86,29.81,2,0,3,0.01
2012-9-6,74,67,62,55,51,48,72,58,47,29.88,29.80,3,0,5,0.00
2012-9-7,75,67,60,56,51,46,72,58,44,29.92,29.85,2,0,3,0.00
2012-9-8,83,71,66,56,50,45,58,48,35,29.89,29.76,2,0,6,0.00
2012-9-9,79,70,63,60,52,45,85,54,41,29.80,29.73,2,0,4,0.38
2012-9-12,64,64,63,45,42,39,50,45,40,29.98,29.95,2,1,4,0.00
2012-9-13,79,68,60,44,37,23,52,34,18,30.00,29.91,4,1,7,0.00
2012-9-14,81,70,64,41,34,25,39,27,19,29.98,29.89,5,2,7,0.00
2012-9-15,79,69,64,36,33,27,33,26,16,29.97,29.89,6,1,7,0.00
2012-9-16,75,66,61,43,35,27,47,32,24,29.95,29.86,3,1,5,0.00
2012-9-17,72,62,60,43,34,31,39,35,32,29.93,29.88,1,0,4,0.00
2012-9-22,77,70,62,46,40,34,47,34,25,29.86,29.81,4,0,5,0.00
2012-9-23,77,67,63,44,36,33,40,32,22,29.92,29.83,3,1,6,0.00
2012-9-24,70,62,56,45,40,33,62,44,32,29.88,29.79,4,1,7,0.00
2012-9-25,67,59,54,45,38,30,72,47,34,29.84,29.77,2,1,5,0.00
2012-9-26,74,64,56,47,36,32,47,36,26,29.82,29.75,3,1,5,0.00
2012-9-27,74,65,58,50,39,32,61,40,25,29.85,29.77,4,1,6,0.00
2012-9-28,73,63,57,47,39,34,61,42,28,29.88,29.79,2,0,5,0.00
2012-9-29,76,66,60,44,40,34,55,40,28,29.94,29.85,2,0,4,0.00
2012-9-30,80,69,61,39,33,26,37,27,18,29.97,29.87,2,0,5,0.00
2012-10-1,82,71,63,34,28,21,28,20,14,29.93,29.81,3,0,5,0.00
2012-10-2,81,72,66,46,28,20,41,20,13,29.83,29.74,3,1,4,0.00
2012-10-3,72,65,57,41,33,28,55,33,22,29.90,29.78,4,2,8,0.00
2012-10-4,67,60,56,41,34,26,56,38,28,29.99,29.90,2,1,5,0.00
2012-10-5,70,61,55,46,32,16,51,34,18,29.95,29.86,4,1,7,0.00
2012-10-6,64,58,53,48,37,22,71,48,21,29.89,29.79,3,1,5,0.00
2012-10-7,65,58,52,47,43,37,76,58,48,29.87,29.81,2,0,4,0.00
2012-10-8,65,58,53,45,31,14,71,39,16,29.90,29.83,4,1,4,0.00
2012-10-9,62,55,48,46,26,0,90,39,11,29.89,29.82,3,1,5,0.00
2012-10-10,54,48,42,44,35,10,94,66,20,29.90,29.82,3,1,6,0.00
2012-10-11,41,39,36,40,38,34,96,95,93,29.96,29.80,2,1,4,0.37
2012-10-12,41,39,36,40,38,35,97,96,96,30.19,29.96,3,0,5,0.03
2012-10-13,63,52,41,44,39,34,96,61,45,30.25,30.11,3,1,10,0.00
2012-10-14,69,59,49,39,34,29,52,40,27,30.12,29.99,3,1,8,0.00
2012-10-15,71,62,57,42,30,25,48,30,20,30.00,29.84,2,0,5,0.00
2012-10-16,72,64,58,36,30,25,36,28,20,29.86,29.74,3,1,5,0.00
2012-10-17,74,67,61,37,30,20,38,26,19,29.84,29.74,4,1,6,0.00
2012-10-18,64,61,58,56,38,24,81,44,24,29.93,29.84,2,0,5,0.00
2012-10-19,69,61,56,51,30,14,70,32,17,29.95,29.78,2,0,4,0.00
2012-10-20,63,57,50,50,36,26,90,48,32,29.80,29.68,2,1,6,0.00
2012-10-21,49,47,45,46,45,44,96,94,87,29.87,29.80,1,0,4,0.00
2012-10-22,52,45,40,44,41,31,96,87,52,29.95,29.84,5,1,7,0.00
2012-10-23,49,42,37,42,38,34,95,86,66,29.94,29.88,4,2,6,0.00
2012-10-24,53,43,35,37,24,5,94,52,17,30.12,29.93,6,2,15,0.00
2012-10-25,57,47,38,28,21,13,46,37,27,30.14,30.04,6,3,14,0.00
2012-10-26,54,47,43,22,16,6,38,29,19,30.10,30.02,8,4,9,0.00
2012-10-27,62,55,46,23,17,7,29,23,15,30.04,29.95,5,2,7,0.00
2012-10-28,68,60,55,21,16,8,25,18,13,29.98,29.91,3,0,4,0.00
2012-10-29,68,60,55,24,16,5,26,18,12,30.05,29.97,3,0,4,0.00
2012-10-30,67,60,54,24,17,7,28,19,14,30.01,29.92,2,0,4,0.00
2012-10-31,65,57,52,28,21,15,33,24,19,29.96,29.88,3,1,5,0.00
2012-11-1,60,53,49,34,23,9,53,32,18,29.92,29.86,2,0,4,0.00
2012-11-2,60,52,47,33,19,5,37,28,16,29.95,29.88,3,0,4,0.00
2012-11-3,62,54,50,28,21,14,34,27,22,30.06,29.96,2,0,4,0.00
2012-11-4,66,57,51,24,19,17,29,23,17,30.12,30.06,4,1,6,0.00
2012-11-5,68,60,54,26,23,21,28,24,19,30.10,30.02,4,1,7,0.00
2012-11-6,68,60,56,29,25,21,32,26,21,30.05,29.97,5,0,5,0.00
2012-11-7,63,56,50,32,25,22,44,30,25,29.99,29.87,3,0,4,0.00
2012-11-8,54,46,39,44,37,22,96,74,33,29.88,29.72,5,2,10,0.28
2012-11-9,41,33,29,40,32,28,96,96,96,29.90,29.71,6,3,11,0.05
2012-11-10,30,28,24,29,24,15,96,88,67,30.20,29.90,6,2,10,0.00
2012-11-11,38,31,24,19,12,-4,67,47,17,30.43,30.21,4,2,7,0.00
2012-11-12,49,40,32,16,-4,-18,30,16,6,30.39,30.33,5,2,6,0.00
2012-11-16,44,43,41,37,36,36,83,78,75,30.02,30.00,4,3,8,0.00
2012-11-17,43,42,40,42,41,39,97,96,95,30.09,29.97,5,2,7,0.14
2012-11-18,44,41,38,44,39,36,98,95,84,30.17,30.05,3,0,4,0.01
2012-11-19,52,46,40,45,26,-5,84,53,10,30.24,30.15,2,0,4,0.00
2012-11-20,56,51,48,34,10,-28,55,24,3,30.18,29.99,1,0,4,0.00
2012-11-21,56,51,47,37,26,12,65,40,23,30.04,29.96,2,0,5,0.00
2012-11-22,57,50,43,38,30,21,71,47,29,30.15,29.98,4,2,7,0.00
2012-11-23,57,53,47,32,24,11,39,32,18,30.20,30.12,3,1,6,0.00
2012-11-24,64,57,53,34,27,10,42,33,17,30.13,29.91,3,1,4,0.00
2012-11-25,59,53,48,30,27,24,40,36,32,29.90,29.82,3,0,5,0.00
2012-11-26,57,50,47,31,27,24,49,41,35,30.09,29.90,2,0,4,0.00
2012-11-27,56,50,46,30,27,25,46,41,35,30.13,30.03,2,1,5,0.00
2012-11-28,51,46,39,38,31,25,91,59,43,30.13,30.02,5,2,7,0.00
2012-11-29,45,44,39,44,42,37,97,96,92,30.18,30.11,6,3,12,0.03
2012-11-30,47,45,41,46,44,40,98,98,97,30.14,30.06,5,2,7,0.37
2012-12-1,48,43,41,45,42,40,98,96,88,30.14,30.06,1,0,6,0.00
2012-12-2,45,43,41,44,42,41,98,98,97,30.10,30.01,6,1,8,0.09
2012-12-3,51,46,43,47,37,10,99,79,19,30.21,30.07,4,1,6,0.01
2012-12-4,56,54,51,37,13,-5,53,22,8,30.24,30.14,4,1,6,0.00
2012-12-5,60,55,49,41,19,-14,71,33,5,30.14,29.91,5,1,7,0.00
2012-12-6,52,46,42,42,39,35,93,78,65,29.94,29.83,4,2,7,0.00
2012-12-7,51,45,40,37,28,1,81,53,16,30.00,29.91,5,2,8,0.00
2012-12-8,52,47,44,29,14,-14,46,28,7,29.98,29.89,2,0,5,0.00
2012-12-9,53,47,42,21,16,10,35,29,25,30.08,29.93,7,1,8,0.00
2012-12-10,50,45,42,24,18,11,44,34,24,30.09,30.06,2,0,6,0.00
2012-12-11,53,46,41,25,19,12,49,34,25,30.08,29.92,3,1,6,0.00
2012-12-12,41,37,34,34,27,18,96,70,43,29.91,29.81,7,4,11,0.04
2012-12-13,35,32,29,34,31,28,97,96,96,29.81,29.71,5,1,15,0.36
2012-12-14,28,26,26,26,25,24,95,95,95,30.00,29.72,0,0,0,0.00
2012-12-15,31,28,23,29,26,21,96,93,88,30.14,29.98,0,0,0,0.00
2012-12-16,37,33,27,36,32,26,97,96,95,30.23,30.12,5,0,6,0.08
2012-12-17,42,37,35,41,37,34,98,97,97,30.18,30.01,4,1,7,0.42
2012-12-18,36,31,19,36,30,14,98,95,81,30.00,29.76,9,4,20,0.26
2012-12-19,38,25,16,18,8,0,86,52,20,30.46,29.93,11,4,19,0.00
2012-12-20,46,43,38,14,0,-10,27,16,10,30.45,30.12,4,2,6,0.01
2012-12-21,47,43,40,14,-4,-17,27,14,7,30.11,30.02,4,2,6,0.00
2012-12-22,42,38,34,33,10,-10,93,38,11,30.13,30.00,5,2,6,0.00
2012-12-23,38,34,31,33,32,28,96,92,70,30.18,30.11,3,1,6,0.00
2012-12-24,40,36,33,40,32,16,97,86,47,30.13,30.02,5,2,8,0.01
2012-12-25,41,37,33,27,20,5,68,50,23,30.12,29.94,6,1,7,0.00
2012-12-26,33,30,26,31,29,24,96,94,68,29.98,29.83,8,3,10,0.00
2012-12-27,29,26,24,26,24,18,94,90,74,30.18,29.94,6,2,18,0.00
2012-12-28,31,26,24,18,15,13,75,64,52,30.27,30.17,4,1,6,0.00
2012-12-29,30,28,27,28,27,24,95,93,81,30.02,29.98,4,1,6,0.00
2012-12-30,27,24,22,25,23,20,95,93,89,30.08,29.93,6,1,10,0.00
2012-12-31,34,25,18,22,16,2,94,70,32,30.34,30.08,6,1,9,0.00
2013-1-1,36,30,26,16,7,-2,50,38,25,30.34,30.19,7,2,9,0.00